Ana Sayfa
METAR-TAF:

METAR-TAF

Havaalanları :

Akron, Ohio, Amerika Birleşik Devletleri

Enlem: 41-02-15N, Boylam: 081-27-51W, yükseklik: 325 m

Güncel hava durumu gözlemi

Rapor saat 21:54 UTC de 59 dakika önce yapıldı.
Rüzgar güney/güneybatıdan 6 kt
Sıcaklık 13°C
Nem 54%
Basınç 1016 hPa
Görüş mesafesi: 16.1 km
8000 ft yükseklikte çok bulutlu

METAR: KAKR 232154Z AUTO 21006KT 10SM OVC080 13/04 A3000 RMK AO2 SLP160 T01280044

Saat: 18:53 (22:53 UTC)


TAF: eksik

4.000'den fazla havaalanı için hava durumu gözlemleri ve tahminleri (METAR ve TAF raporları).

Kullanılabilir istasyonlar harita üzerinde sarı ve kırmızı noktalarla gösterilir.

İstasyonun adını görmek için fareyi noktanın üzerinde gezdirin.

Sonrasında hava gözlem ve tahminlerini görmek için tıklayın.

Haritayı değiştirmek için: yaklaştırmak için siyah artı işaretli yeşil düğmeye ve uzaklaştırmak için de eksi işaretli düğmeye hızla tıklayın; bitişik haritalar için yeşil okları kullanın.


METAR-TAF: